createdAt,value
2023-05-01T00:00:50.215Z,3.80
2023-05-01T00:03:25.605Z,3.10
2023-05-01T00:06:08.279Z,3.00
2023-05-01T00:08:41.510Z,3.75
2023-05-01T00:11:14.306Z,2.85
2023-05-01T00:13:47.133Z,3.33
2023-05-01T00:16:20.014Z,3.70
2023-05-01T00:18:52.897Z,3.58
2023-05-01T00:21:25.665Z,3.40
2023-05-01T00:23:58.820Z,3.08
2023-05-01T00:26:32.394Z,2.42
2023-05-01T00:29:05.793Z,1.90
2023-05-01T00:31:39.160Z,1.85
2023-05-01T00:34:12.323Z,2.30
2023-05-01T00:36:45.935Z,2.10
2023-05-01T00:41:51.399Z,2.00
2023-05-01T00:44:24.185Z,1.75
2023-05-01T00:46:58.789Z,1.60
2023-05-01T00:49:31.619Z,2.42
2023-05-01T00:52:04.985Z,1.80
2023-05-01T00:54:39.219Z,2.20
2023-05-01T00:57:12.028Z,1.72
2023-05-01T00:59:45.748Z,1.80
2023-05-01T01:02:18.464Z,2.12
2023-05-01T01:04:51.910Z,1.90
2023-05-01T01:07:51.213Z,2.45
2023-05-01T01:10:43.377Z,2.62
2023-05-01T01:13:23.868Z,2.42
2023-05-01T01:16:07.470Z,2.42
2023-05-01T01:19:09.584Z,2.70
2023-05-01T01:21:47.630Z,2.47
2023-05-01T01:24:36.514Z,2.47
2023-05-01T01:27:51.347Z,2.30
2023-05-01T01:30:38.458Z,2.35
2023-05-01T01:33:44.750Z,2.20
2023-05-01T01:36:35.012Z,3.00
2023-05-01T01:39:27.783Z,2.22
2023-05-01T01:42:01.530Z,2.62
2023-05-01T01:44:59.559Z,1.98
2023-05-01T01:47:35.026Z,2.77
2023-05-01T01:50:09.806Z,2.47
2023-05-01T01:52:43.545Z,2.40
2023-05-01T01:55:17.191Z,2.47
2023-05-01T01:57:51.695Z,2.67
2023-05-01T02:00:25.393Z,1.95
2023-05-01T02:03:01.484Z,2.27
2023-05-01T02:05:35.892Z,2.60
2023-05-01T02:10:43.475Z,2.00
2023-05-01T02:13:17.908Z,2.25
2023-05-01T02:18:23.513Z,1.98
2023-05-01T02:20:59.177Z,2.02
2023-05-01T02:23:33.803Z,1.90
2023-05-01T02:26:07.497Z,1.95
2023-05-01T02:28:41.780Z,1.80
2023-05-01T02:33:46.601Z,1.80
2023-05-01T02:36:19.867Z,2.12
2023-05-01T02:38:53.195Z,2.15
2023-05-01T02:41:30.726Z,1.67
2023-05-01T02:44:06.173Z,1.50
2023-05-01T02:46:40.670Z,1.80
2023-05-01T02:49:15.005Z,3.08
2023-05-01T02:51:49.022Z,1.70
2023-05-01T02:56:54.573Z,2.15
2023-05-01T02:59:27.504Z,2.17
2023-05-01T03:02:00.861Z,1.87
2023-05-01T03:04:33.974Z,2.27
2023-05-01T03:07:06.901Z,1.65
2023-05-01T03:12:13.195Z,2.22
2023-05-01T03:14:46.852Z,2.30
2023-05-01T03:17:20.150Z,2.02
2023-05-01T03:19:53.547Z,2.30
2023-05-01T03:22:26.933Z,2.22
2023-05-01T03:25:00.370Z,2.58
2023-05-01T03:27:33.722Z,2.80
2023-05-01T03:30:09.114Z,2.47
2023-05-01T03:32:42.806Z,2.37
2023-05-01T03:35:17.671Z,2.75
2023-05-01T03:37:50.992Z,2.10
2023-05-01T03:40:25.702Z,3.02
2023-05-01T03:43:00.504Z,2.85
2023-05-01T03:45:34.092Z,3.33
2023-05-01T03:48:07.772Z,2.85
2023-05-01T03:50:41.208Z,2.45
2023-05-01T03:53:14.889Z,1.62
2023-05-01T03:55:48.450Z,2.27
2023-05-01T03:58:22.629Z,1.90
2023-05-01T04:00:58.548Z,1.50
2023-05-01T04:03:32.335Z,2.15
2023-05-01T04:06:05.760Z,1.95
2023-05-01T04:08:38.924Z,2.67
2023-05-01T04:11:12.208Z,2.47
2023-05-01T04:13:45.731Z,1.70
2023-05-01T04:16:18.799Z,3.00
2023-05-01T04:18:53.200Z,1.90
2023-05-01T04:21:26.555Z,2.35
2023-05-01T04:23:59.525Z,2.30
2023-05-01T04:26:33.514Z,3.77
2023-05-01T04:29:06.724Z,4.08
2023-05-01T04:31:41.239Z,2.60
2023-05-01T04:34:14.561Z,1.92
2023-05-01T04:36:47.546Z,2.45
2023-05-01T04:39:21.408Z,4.30
2023-05-01T04:41:54.777Z,3.45
2023-05-01T04:44:28.130Z,3.33
2023-05-01T04:47:03.236Z,3.20
2023-05-01T04:49:36.338Z,3.92
2023-05-01T04:52:09.750Z,2.58
2023-05-01T04:54:47.528Z,8.55
2023-05-01T04:57:20.948Z,3.22
2023-05-01T04:59:54.663Z,2.30
2023-05-01T05:02:27.826Z,1.75
2023-05-01T05:05:01.219Z,2.02
2023-05-01T05:07:34.251Z,1.80
2023-05-01T05:10:12.378Z,1.60
2023-05-01T05:12:46.916Z,1.60
2023-05-01T05:15:20.244Z,16.20
2023-05-01T05:17:55.205Z,1.90
2023-05-01T05:20:28.342Z,1.10
2023-05-01T05:23:01.609Z,1.25
2023-05-01T05:25:35.558Z,1.35
2023-05-01T05:28:08.974Z,1.00
2023-05-01T05:30:42.363Z,0.80
2023-05-01T05:33:17.636Z,0.90
2023-05-01T05:35:50.911Z,0.80
2023-05-01T05:38:25.395Z,1.00
2023-05-01T05:41:01.201Z,1.17
2023-05-01T05:43:35.098Z,0.82
2023-05-01T05:46:08.390Z,0.90
2023-05-01T05:48:43.105Z,0.60
2023-05-01T05:53:49.684Z,0.90
2023-05-01T05:56:24.199Z,0.80
2023-05-01T06:01:29.720Z,0.93
2023-05-01T06:04:02.662Z,0.98
2023-05-01T06:06:36.218Z,0.72
2023-05-01T06:09:09.514Z,0.90
2023-05-01T06:11:42.570Z,0.95
2023-05-01T06:14:17.179Z,0.80
2023-05-01T06:16:50.983Z,0.82
2023-05-01T06:19:24.187Z,0.90
2023-05-01T06:21:58.646Z,0.80
2023-05-01T06:24:31.653Z,0.90
2023-05-01T06:27:05.627Z,0.88
2023-05-01T06:29:38.801Z,1.00
2023-05-01T06:32:12.177Z,0.97
2023-05-01T06:34:45.340Z,1.00
2023-05-01T06:37:18.629Z,1.07
2023-05-01T06:39:51.790Z,0.98
2023-05-01T06:42:24.866Z,0.75
2023-05-01T06:44:57.947Z,0.82
2023-05-01T06:47:31.157Z,1.10
2023-05-01T06:50:05.925Z,1.00
2023-05-01T06:52:39.212Z,0.80
2023-05-01T06:55:12.811Z,1.00
2023-05-01T06:57:45.584Z,1.00
2023-05-01T07:00:20.217Z,0.93
2023-05-01T07:02:53.349Z,1.00
2023-05-01T07:05:27.300Z,1.00
2023-05-01T07:08:02.098Z,1.10
2023-05-01T07:10:35.289Z,0.70
2023-05-01T07:13:08.657Z,0.80
2023-05-01T07:15:41.420Z,1.05
2023-05-01T07:18:14.907Z,1.10
2023-05-01T07:20:49.514Z,1.10
2023-05-01T07:23:24.074Z,0.75
2023-05-01T07:25:57.345Z,0.65
2023-05-01T07:28:30.235Z,1.40
2023-05-01T07:31:03.092Z,1.22
2023-05-01T07:33:36.537Z,1.40
2023-05-01T07:36:09.650Z,1.10
2023-05-01T07:38:42.612Z,0.88
2023-05-01T07:41:15.739Z,1.17
2023-05-01T07:43:48.804Z,1.50
2023-05-01T07:46:21.660Z,1.32
2023-05-01T07:48:55.296Z,1.65
2023-05-01T07:51:28.551Z,2.05
2023-05-01T07:54:03.273Z,1.35
2023-05-01T07:56:36.039Z,1.52
2023-05-01T07:59:08.899Z,1.57
2023-05-01T08:01:41.840Z,1.10
2023-05-01T08:04:15.286Z,1.50
2023-05-01T08:06:48.236Z,2.27
2023-05-01T08:09:21.234Z,1.32
2023-05-01T08:11:55.748Z,1.67
2023-05-01T08:14:28.568Z,0.75
2023-05-01T08:17:01.600Z,1.12
2023-05-01T08:19:35.057Z,1.20
2023-05-01T08:22:07.998Z,1.80
2023-05-01T08:24:44.298Z,2.08
2023-05-01T08:27:17.146Z,1.60
2023-05-01T08:29:50.856Z,1.42
2023-05-01T08:32:23.940Z,1.00
2023-05-01T08:34:56.737Z,1.17
2023-05-01T08:37:29.642Z,1.75
2023-05-01T08:40:04.237Z,1.30
2023-05-01T08:42:40.372Z,1.70
2023-05-01T08:45:13.983Z,1.22
2023-05-01T08:47:47.430Z,1.12
2023-05-01T08:50:20.937Z,1.15
2023-05-01T08:52:54.335Z,1.10
2023-05-01T08:55:28.744Z,1.50
2023-05-01T08:58:01.817Z,1.17
2023-05-01T09:00:36.869Z,1.57
2023-05-01T09:03:11.058Z,1.30
2023-05-01T09:05:45.881Z,1.27
2023-05-01T09:08:19.074Z,1.07
2023-05-01T09:10:52.388Z,0.98
2023-05-01T09:13:25.184Z,0.85
2023-05-01T09:15:58.140Z,1.07
2023-05-01T09:18:31.684Z,1.42
2023-05-01T09:21:04.962Z,1.10
2023-05-01T09:23:38.143Z,1.33
2023-05-01T09:26:12.215Z,1.30
2023-05-01T09:28:49.544Z,1.82
2023-05-01T09:31:35.498Z,1.45
2023-05-01T09:34:08.879Z,1.05
2023-05-01T09:36:41.840Z,1.30
2023-05-01T09:39:17.309Z,1.57
2023-05-01T09:41:53.769Z,1.12
2023-05-01T09:44:27.108Z,1.52
2023-05-01T09:46:59.936Z,1.00
2023-05-01T09:49:48.447Z,1.27
2023-05-01T09:52:21.653Z,1.20
2023-05-01T09:55:17.418Z,0.98
2023-05-01T09:57:50.555Z,1.40
2023-05-01T10:00:23.326Z,1.27
2023-05-01T10:02:57.021Z,1.40
2023-05-01T10:05:30.514Z,1.60
2023-05-01T10:08:06.028Z,1.25
2023-05-01T10:10:39.551Z,1.22
2023-05-01T10:13:19.225Z,1.57
2023-05-01T10:15:52.012Z,1.90
2023-05-01T10:18:25.223Z,2.15
2023-05-01T10:20:58.817Z,2.15
2023-05-01T10:26:05.879Z,1.85
2023-05-01T10:28:40.395Z,1.52
2023-05-01T10:31:13.264Z,1.32
2023-05-01T10:33:47.947Z,0.78
2023-05-01T10:36:30.550Z,0.85
2023-05-01T10:39:03.468Z,0.98
2023-05-01T10:42:11.630Z,1.32
2023-05-01T10:44:46.916Z,1.40
2023-05-01T10:47:35.048Z,0.88
2023-05-01T10:50:13.496Z,1.05
2023-05-01T10:53:17.092Z,1.12
2023-05-01T10:55:51.292Z,1.07
2023-05-01T10:58:44.219Z,0.88
2023-05-01T11:01:45.107Z,1.30
2023-05-01T11:04:31.645Z,1.50
2023-05-01T11:07:18.055Z,0.98
2023-05-01T11:09:57.703Z,1.07
2023-05-01T11:12:51.998Z,1.10
2023-05-01T11:15:34.033Z,1.27
2023-05-01T11:18:07.874Z,1.00
2023-05-01T11:23:25.779Z,1.75
2023-05-01T11:26:05.634Z,1.42
2023-05-01T11:28:40.372Z,1.42
2023-05-01T11:33:45.562Z,1.65
2023-05-01T11:36:20.088Z,2.02
2023-05-01T11:38:57.836Z,1.70
2023-05-01T11:41:31.652Z,1.40
2023-05-01T11:44:04.470Z,1.02
2023-05-01T11:46:37.340Z,1.20
2023-05-01T11:49:10.548Z,0.93
2023-05-01T11:51:43.414Z,1.85
2023-05-01T11:54:16.538Z,1.70
2023-05-01T11:56:49.419Z,2.25
2023-05-01T11:59:22.384Z,1.57
2023-05-01T12:01:55.485Z,1.30
2023-05-01T12:04:32.376Z,1.30
2023-05-01T12:07:03.955Z,1.50
2023-05-01T12:09:37.330Z,1.62
2023-05-01T12:12:10.199Z,2.00
2023-05-01T12:14:43.723Z,1.82
2023-05-01T12:17:17.091Z,1.98
2023-05-01T12:19:50.600Z,2.40
2023-05-01T12:22:24.068Z,1.87
2023-05-01T12:24:57.517Z,1.92
2023-05-01T12:27:30.807Z,2.40
2023-05-01T12:30:03.782Z,2.37
2023-05-01T12:32:37.324Z,2.47
2023-05-01T12:35:19.613Z,2.12
2023-05-01T12:37:52.775Z,2.72
2023-05-01T12:40:25.913Z,1.80
2023-05-01T12:42:59.551Z,2.08
2023-05-01T12:45:34.493Z,2.27
2023-05-01T12:48:15.154Z,2.05
2023-05-01T12:50:51.583Z,2.20
2023-05-01T12:53:26.833Z,2.12
2023-05-01T12:56:01.539Z,2.27
2023-05-01T12:58:39.247Z,2.35
2023-05-01T13:01:12.262Z,2.35
2023-05-01T13:03:46.061Z,2.67
2023-05-01T13:06:19.282Z,3.02
2023-05-01T13:08:52.240Z,2.40
2023-05-01T13:11:26.744Z,2.37
2023-05-01T13:14:01.087Z,2.33
2023-05-01T13:19:06.584Z,2.00
2023-05-01T13:21:49.228Z,2.90
2023-05-01T13:24:22.447Z,2.27
2023-05-01T13:27:04.873Z,2.17
2023-05-01T13:29:37.165Z,2.42
2023-05-01T13:32:12.953Z,2.10
2023-05-01T13:34:46.086Z,2.47
2023-05-01T13:37:19.513Z,2.08
2023-05-01T13:39:52.356Z,2.83
2023-05-01T13:42:26.353Z,1.80
2023-05-01T13:45:00.471Z,2.00
2023-05-01T13:47:33.782Z,1.70
2023-05-01T13:50:08.618Z,2.00
2023-05-01T13:52:46.369Z,1.95
2023-05-01T13:55:19.686Z,1.77
2023-05-01T13:57:52.707Z,1.92
2023-05-01T14:00:26.096Z,1.75
2023-05-01T14:03:00.358Z,1.95
2023-05-01T14:08:06.014Z,2.62
2023-05-01T14:10:39.289Z,3.10
2023-05-01T14:13:12.243Z,4.35
2023-05-01T14:15:46.063Z,4.75
2023-05-01T14:18:19.586Z,5.30
2023-05-01T14:20:52.543Z,5.50
2023-05-01T14:23:25.599Z,4.42
2023-05-01T14:25:58.431Z,4.55
2023-05-01T14:28:32.448Z,4.42
2023-05-01T14:31:05.561Z,4.30
2023-05-01T14:33:43.783Z,4.17
2023-05-01T14:36:18.379Z,4.08
2023-05-01T14:38:52.232Z,3.77
2023-05-01T14:41:26.181Z,3.47
2023-05-01T14:43:59.145Z,3.00
2023-05-01T14:46:35.014Z,2.95
2023-05-01T14:49:07.747Z,2.70
2023-05-01T14:51:42.259Z,2.33
2023-05-01T14:56:49.414Z,4.55
2023-05-01T14:59:23.970Z,4.97
2023-05-01T15:01:57.239Z,6.10
2023-05-01T15:04:30.114Z,6.55
2023-05-01T15:07:03.108Z,8.48
2023-05-01T15:09:36.226Z,7.12
2023-05-01T15:12:10.072Z,7.47
2023-05-01T15:14:44.929Z,8.30
2023-05-01T15:17:18.274Z,9.63
2023-05-01T15:19:51.157Z,10.45
2023-05-01T15:22:25.757Z,11.45
2023-05-01T15:24:58.900Z,10.90
2023-05-01T15:27:32.259Z,10.32
2023-05-01T15:30:06.261Z,8.80
2023-05-01T15:35:12.669Z,7.20
2023-05-01T15:37:45.897Z,7.35
2023-05-01T15:40:19.444Z,8.03
2023-05-01T15:42:52.383Z,8.83
2023-05-01T15:45:25.597Z,9.10
2023-05-01T15:47:58.633Z,11.90
2023-05-01T15:50:31.708Z,14.63
2023-05-01T15:53:05.044Z,14.50
2023-05-01T15:55:38.513Z,10.80
2023-05-01T15:58:11.370Z,10.18
2023-05-01T16:00:50.186Z,11.05
2023-05-01T16:03:23.468Z,13.35
2023-05-01T16:05:57.711Z,10.90
2023-05-01T16:08:32.406Z,11.63
2023-05-01T16:13:41.095Z,10.85
2023-05-01T16:16:14.968Z,12.30
2023-05-01T16:18:47.878Z,14.43
2023-05-01T16:21:20.968Z,13.18
2023-05-01T16:23:56.265Z,13.10
2023-05-01T16:26:31.727Z,13.35
2023-05-01T16:29:09.157Z,13.05
2023-05-01T16:31:46.416Z,13.83
2023-05-01T16:34:22.029Z,17.05
2023-05-01T16:36:56.744Z,17.62
2023-05-01T16:39:29.841Z,13.18
2023-05-01T16:42:04.672Z,13.88
2023-05-01T16:44:37.876Z,15.40
2023-05-01T16:47:14.303Z,19.48
2023-05-01T16:49:47.128Z,16.65
2023-05-01T16:52:20.131Z,15.32
2023-05-01T16:54:54.680Z,13.22
2023-05-01T16:59:59.783Z,9.23
2023-05-01T17:02:35.934Z,11.65
2023-05-01T17:05:09.954Z,11.73
2023-05-01T17:10:15.139Z,9.18
2023-05-01T17:12:48.615Z,12.20
2023-05-01T17:15:21.547Z,14.13
2023-05-01T17:17:54.902Z,14.07
2023-05-01T17:20:28.679Z,10.80
2023-05-01T17:23:01.645Z,12.15
2023-05-01T17:25:34.459Z,10.25
2023-05-01T17:28:07.967Z,7.30
2023-05-01T17:30:41.203Z,7.58
2023-05-01T17:33:15.798Z,7.30
2023-05-01T17:35:49.602Z,7.10
2023-05-01T17:38:22.638Z,6.33
2023-05-01T17:40:55.709Z,6.47
2023-05-01T17:43:28.788Z,5.67
2023-05-01T17:46:01.936Z,4.90
2023-05-01T17:48:35.077Z,4.93
2023-05-01T17:51:08.369Z,5.65
2023-05-01T17:53:41.807Z,4.78
2023-05-01T17:56:14.740Z,5.25
2023-05-01T17:58:49.440Z,4.25
2023-05-01T18:01:22.514Z,3.92
2023-05-01T18:03:55.745Z,3.90
2023-05-01T18:06:29.086Z,3.75
2023-05-01T18:09:01.971Z,3.22
2023-05-01T18:11:34.895Z,2.70
2023-05-01T18:14:08.003Z,2.98
2023-05-01T18:16:42.119Z,2.70
2023-05-01T18:19:15.091Z,2.95
2023-05-01T18:21:48.022Z,2.52
2023-05-01T18:24:21.054Z,2.70
2023-05-01T18:26:54.011Z,2.22
2023-05-01T18:29:28.476Z,4.20
2023-05-01T18:32:01.398Z,2.55
2023-05-01T18:34:34.552Z,2.47
2023-05-01T18:37:07.692Z,1.77
2023-05-01T18:39:40.915Z,2.05
2023-05-01T18:42:13.990Z,2.08
2023-05-01T18:44:47.444Z,1.98
2023-05-01T18:47:20.454Z,2.10
2023-05-01T18:49:53.407Z,1.95
2023-05-01T18:52:26.410Z,1.82
2023-05-01T18:54:59.505Z,2.20
2023-05-01T18:57:32.846Z,2.00
2023-05-01T19:00:07.741Z,2.02
2023-05-01T19:02:41.162Z,2.80
2023-05-01T19:05:14.338Z,2.72
2023-05-01T19:07:47.408Z,2.87
2023-05-01T19:10:20.729Z,2.98
2023-05-01T19:12:53.529Z,3.60
2023-05-01T19:15:26.462Z,4.37
2023-05-01T19:17:59.538Z,3.87
2023-05-01T19:20:32.801Z,4.00
2023-05-01T19:23:06.021Z,4.50
2023-05-01T19:25:39.393Z,4.00
2023-05-01T19:28:12.297Z,5.00
2023-05-01T19:30:45.331Z,4.75
2023-05-01T19:33:18.312Z,4.47
2023-05-01T19:35:51.441Z,5.17
2023-05-01T19:38:24.682Z,5.23
2023-05-01T19:40:57.666Z,5.00
2023-05-01T19:43:30.570Z,5.58
2023-05-01T19:46:03.384Z,5.62
2023-05-01T19:48:36.376Z,6.25
2023-05-01T19:51:09.184Z,4.83
2023-05-01T19:53:42.258Z,5.70
2023-05-01T19:56:15.258Z,5.78
2023-05-01T19:58:48.271Z,6.08
2023-05-01T20:01:21.134Z,6.75
2023-05-01T20:03:53.945Z,5.97
2023-05-01T20:06:28.063Z,6.00
2023-05-01T20:09:00.936Z,6.50
2023-05-01T20:11:34.765Z,5.80
2023-05-01T20:14:08.284Z,7.55
2023-05-01T20:16:41.295Z,6.42
2023-05-01T20:19:16.179Z,5.92
2023-05-01T20:21:49.685Z,6.20
2023-05-01T20:24:22.657Z,8.25
2023-05-01T20:26:56.138Z,6.30
2023-05-01T20:29:29.108Z,7.70
2023-05-01T20:32:02.066Z,5.20
2023-05-01T20:34:35.355Z,6.40
2023-05-01T20:37:08.308Z,6.50
2023-05-01T20:39:41.364Z,5.83
2023-05-01T20:42:14.394Z,6.25
2023-05-01T20:44:47.055Z,5.67
2023-05-01T20:47:20.378Z,5.22
2023-05-01T20:49:53.124Z,6.25
2023-05-01T20:52:26.433Z,7.10
2023-05-01T20:55:00.293Z,6.90
2023-05-01T21:00:09.648Z,8.25
2023-05-01T21:02:43.548Z,8.35
2023-05-01T21:05:16.765Z,7.65
2023-05-01T21:07:50.035Z,8.05
2023-05-01T21:10:23.066Z,6.75
2023-05-01T21:12:59.282Z,7.37
2023-05-01T21:15:34.227Z,8.05
2023-05-01T21:18:07.145Z,7.75
2023-05-01T21:20:42.831Z,8.43
2023-05-01T21:23:18.635Z,7.30
2023-05-01T21:25:54.545Z,8.38
2023-05-01T21:28:28.142Z,8.78
2023-05-01T21:31:00.895Z,7.37
2023-05-01T21:33:34.521Z,7.45
2023-05-01T21:36:08.129Z,7.45
2023-05-01T21:38:41.891Z,7.43
2023-05-01T21:41:15.873Z,7.28
2023-05-01T21:46:21.811Z,6.87
2023-05-01T21:48:54.772Z,7.95
2023-05-01T21:51:30.235Z,7.45
2023-05-01T21:54:04.251Z,8.48
2023-05-01T21:56:37.248Z,9.85
2023-05-01T21:59:10.155Z,8.38
2023-05-01T22:01:44.615Z,7.97
2023-05-01T22:04:19.360Z,7.47
2023-05-01T22:06:52.303Z,7.83
2023-05-01T22:09:25.916Z,6.78
2023-05-01T22:12:02.009Z,6.92
2023-05-01T22:14:46.831Z,6.37
2023-05-01T22:17:09.532Z,6.47
2023-05-01T22:19:42.914Z,6.93
2023-05-01T22:22:15.832Z,6.67
2023-05-01T22:24:48.729Z,6.75
2023-05-01T22:27:21.525Z,8.50
2023-05-01T22:29:54.404Z,8.00
2023-05-01T22:32:27.451Z,7.45
2023-05-01T22:35:00.490Z,7.72
2023-05-01T22:37:33.742Z,8.03
2023-05-01T22:40:08.163Z,7.55
2023-05-01T22:42:42.267Z,7.22
2023-05-01T22:45:15.567Z,8.18
2023-05-01T22:47:48.477Z,8.40
2023-05-01T22:50:21.602Z,8.35
2023-05-01T22:52:56.263Z,8.90
2023-05-01T22:55:29.055Z,8.38
2023-05-01T22:58:01.971Z,9.63
2023-05-01T23:00:35.331Z,9.28
2023-05-01T23:03:09.677Z,9.20
2023-05-01T23:05:44.122Z,10.88
2023-05-01T23:08:16.927Z,10.45
2023-05-01T23:10:50.400Z,11.80
2023-05-01T23:13:24.360Z,10.63
2023-05-01T23:15:57.717Z,9.93
2023-05-01T23:18:34.501Z,11.67
2023-05-01T23:21:07.451Z,11.73
2023-05-01T23:23:46.287Z,13.35
2023-05-01T23:26:29.243Z,13.25
2023-05-01T23:29:02.842Z,13.53
2023-05-01T23:31:36.104Z,12.75
2023-05-01T23:34:09.404Z,13.48
2023-05-01T23:36:44.798Z,12.80
2023-05-01T23:39:19.303Z,11.12
2023-05-01T23:41:52.363Z,12.10
2023-05-01T23:44:25.228Z,11.28
2023-05-01T23:46:58.631Z,12.07
2023-05-01T23:49:31.760Z,13.58
2023-05-01T23:52:04.967Z,10.38
2023-05-01T23:54:39.587Z,10.75
2023-05-01T23:57:12.406Z,12.07
2023-05-01T23:59:45.063Z,12.25
